sensor_id;sensor_type;location;lat;lon;timestamp;temperature;humidity
65824;SHT31;52585;47.566;19.056;2022-10-31T00:00:19;16.01;76.06
65824;SHT31;52585;47.566;19.056;2022-10-31T00:02:45;16.00;76.06
65824;SHT31;52585;47.566;19.056;2022-10-31T00:05:10;15.99;76.05
65824;SHT31;52585;47.566;19.056;2022-10-31T00:07:36;15.98;76.06
65824;SHT31;52585;47.566;19.056;2022-10-31T00:10:02;15.98;76.00
65824;SHT31;52585;47.566;19.056;2022-10-31T00:12:28;15.97;76.02
65824;SHT31;52585;47.566;19.056;2022-10-31T00:14:53;15.97;75.99
65824;SHT31;52585;47.566;19.056;2022-10-31T00:17:19;15.96;76.01
65824;SHT31;52585;47.566;19.056;2022-10-31T00:19:44;15.95;76.01
65824;SHT31;52585;47.566;19.056;2022-10-31T00:22:10;15.94;76.01
65824;SHT31;52585;47.566;19.056;2022-10-31T00:24:35;15.91;75.92
65824;SHT31;52585;47.566;19.056;2022-10-31T00:27:00;15.91;75.95
65824;SHT31;52585;47.566;19.056;2022-10-31T00:29:26;15.89;75.91
65824;SHT31;52585;47.566;19.056;2022-10-31T00:31:52;15.88;75.96
65824;SHT31;52585;47.566;19.056;2022-10-31T00:34:18;15.87;75.91
65824;SHT31;52585;47.566;19.056;2022-10-31T00:36:43;15.87;75.90
65824;SHT31;52585;47.566;19.056;2022-10-31T00:39:09;15.88;75.91
65824;SHT31;52585;47.566;19.056;2022-10-31T00:41:34;15.86;75.86
65824;SHT31;52585;47.566;19.056;2022-10-31T00:44:00;15.86;75.85
65824;SHT31;52585;47.566;19.056;2022-10-31T00:46:25;15.83;75.85
65824;SHT31;52585;47.566;19.056;2022-10-31T00:48:51;15.81;75.82
65824;SHT31;52585;47.566;19.056;2022-10-31T00:51:17;15.80;75.87
65824;SHT31;52585;47.566;19.056;2022-10-31T00:53:42;15.80;75.87
65824;SHT31;52585;47.566;19.056;2022-10-31T00:56:08;15.80;75.89
65824;SHT31;52585;47.566;19.056;2022-10-31T00:58:33;15.79;75.82
65824;SHT31;52585;47.566;19.056;2022-10-31T01:00:58;15.80;75.84
65824;SHT31;52585;47.566;19.056;2022-10-31T01:03:25;15.79;75.91
65824;SHT31;52585;47.566;19.056;2022-10-31T01:06:00;15.80;75.87
65824;SHT31;52585;47.566;19.056;2022-10-31T01:08:35;15.81;75.82
65824;SHT31;52585;47.566;19.056;2022-10-31T01:11:10;15.79;75.81
65824;SHT31;52585;47.566;19.056;2022-10-31T01:13:52;15.78;75.77
65824;SHT31;52585;47.566;19.056;2022-10-31T01:16:20;15.76;75.81
65824;SHT31;52585;47.566;19.056;2022-10-31T01:18:49;15.73;75.92
65824;SHT31;52585;47.566;19.056;2022-10-31T01:21:16;15.74;75.97
65824;SHT31;52585;47.566;19.056;2022-10-31T01:23:49;15.75;76.00
65824;SHT31;52585;47.566;19.056;2022-10-31T01:26:18;15.76;76.01
65824;SHT31;52585;47.566;19.056;2022-10-31T01:28:54;15.76;76.03
65824;SHT31;52585;47.566;19.056;2022-10-31T01:31:23;15.76;76.02
65824;SHT31;52585;47.566;19.056;2022-10-31T01:33:53;15.76;76.02
65824;SHT31;52585;47.566;19.056;2022-10-31T01:36:24;15.76;75.95
65824;SHT31;52585;47.566;19.056;2022-10-31T01:39:02;15.74;75.90
65824;SHT31;52585;47.566;19.056;2022-10-31T01:41:39;15.73;75.94
65824;SHT31;52585;47.566;19.056;2022-10-31T01:52:10;15.73;76.00
65824;SHT31;52585;47.566;19.056;2022-10-31T01:55:18;15.72;75.94
65824;SHT31;52585;47.566;19.056;2022-10-31T01:57:52;15.71;75.93
65824;SHT31;52585;47.566;19.056;2022-10-31T02:00:22;15.70;76.01
65824;SHT31;52585;47.566;19.056;2022-10-31T02:02:48;15.68;76.00
65824;SHT31;52585;47.566;19.056;2022-10-31T02:05:17;15.67;76.05
65824;SHT31;52585;47.566;19.056;2022-10-31T02:07:51;15.68;76.05
65824;SHT31;52585;47.566;19.056;2022-10-31T02:10:43;15.67;76.04
65824;SHT31;52585;47.566;19.056;2022-10-31T02:13:09;15.68;76.05
65824;SHT31;52585;47.566;19.056;2022-10-31T02:15:38;15.67;76.04
65824;SHT31;52585;47.566;19.056;2022-10-31T02:18:06;15.66;76.04
65824;SHT31;52585;47.566;19.056;2022-10-31T02:29:22;15.66;76.11
65824;SHT31;52585;47.566;19.056;2022-10-31T02:46:33;15.60;76.31
65824;SHT31;52585;47.566;19.056;2022-10-31T02:49:28;15.59;76.31
65824;SHT31;52585;47.566;19.056;2022-10-31T02:54:51;15.57;76.29
65824;SHT31;52585;47.566;19.056;2022-10-31T02:57:20;15.56;76.24
65824;SHT31;52585;47.566;19.056;2022-10-31T03:00:05;15.55;76.21
65824;SHT31;52585;47.566;19.056;2022-10-31T03:08:35;15.56;76.15
65824;SHT31;52585;47.566;19.056;2022-10-31T03:11:29;15.56;76.13
65824;SHT31;52585;47.566;19.056;2022-10-31T03:14:12;15.53;76.09
65824;SHT31;52585;47.566;19.056;2022-10-31T03:16:50;15.52;76.11
65824;SHT31;52585;47.566;19.056;2022-10-31T03:21:58;15.49;76.05
65824;SHT31;52585;47.566;19.056;2022-10-31T03:24:36;15.50;76.03
65824;SHT31;52585;47.566;19.056;2022-10-31T03:27:04;15.50;76.06
65824;SHT31;52585;47.566;19.056;2022-10-31T03:29:35;15.51;76.05
65824;SHT31;52585;47.566;19.056;2022-10-31T03:32:05;15.51;76.04
65824;SHT31;52585;47.566;19.056;2022-10-31T03:34:37;15.50;76.01
65824;SHT31;52585;47.566;19.056;2022-10-31T03:37:08;15.49;75.95
65824;SHT31;52585;47.566;19.056;2022-10-31T03:39:42;15.51;75.95
65824;SHT31;52585;47.566;19.056;2022-10-31T03:42:13;15.52;75.98
65824;SHT31;52585;47.566;19.056;2022-10-31T03:45:15;15.52;75.91
65824;SHT31;52585;47.566;19.056;2022-10-31T03:47:46;15.51;75.82
65824;SHT31;52585;47.566;19.056;2022-10-31T03:50:12;15.51;75.84
65824;SHT31;52585;47.566;19.056;2022-10-31T03:52:41;15.50;75.76
65824;SHT31;52585;47.566;19.056;2022-10-31T03:55:38;15.49;75.71
65824;SHT31;52585;47.566;19.056;2022-10-31T03:58:32;15.49;75.65
65824;SHT31;52585;47.566;19.056;2022-10-31T04:01:05;15.48;75.72
65824;SHT31;52585;47.566;19.056;2022-10-31T04:03:37;15.48;75.75
65824;SHT31;52585;47.566;19.056;2022-10-31T04:06:05;15.49;75.75
65824;SHT31;52585;47.566;19.056;2022-10-31T04:08:37;15.45;75.74
65824;SHT31;52585;47.566;19.056;2022-10-31T04:11:08;15.45;75.75
65824;SHT31;52585;47.566;19.056;2022-10-31T04:13:37;15.43;75.73
65824;SHT31;52585;47.566;19.056;2022-10-31T04:16:06;15.43;75.73
65824;SHT31;52585;47.566;19.056;2022-10-31T04:18:33;15.43;75.81
65824;SHT31;52585;47.566;19.056;2022-10-31T04:21:06;15.47;75.98
65824;SHT31;52585;47.566;19.056;2022-10-31T04:23:33;15.48;75.86
65824;SHT31;52585;47.566;19.056;2022-10-31T04:26:01;15.48;75.83
65824;SHT31;52585;47.566;19.056;2022-10-31T04:28:27;15.47;75.81
65824;SHT31;52585;47.566;19.056;2022-10-31T04:30:52;15.46;75.82
65824;SHT31;52585;47.566;19.056;2022-10-31T04:33:18;15.45;75.83
65824;SHT31;52585;47.566;19.056;2022-10-31T04:35:44;15.46;75.89
65824;SHT31;52585;47.566;19.056;2022-10-31T04:38:10;15.45;75.92
65824;SHT31;52585;47.566;19.056;2022-10-31T04:40:36;15.45;75.97
65824;SHT31;52585;47.566;19.056;2022-10-31T04:43:01;15.45;75.98
65824;SHT31;52585;47.566;19.056;2022-10-31T04:45:26;15.44;75.96
65824;SHT31;52585;47.566;19.056;2022-10-31T04:47:52;15.42;75.98
65824;SHT31;52585;47.566;19.056;2022-10-31T04:50:17;15.40;76.00
65824;SHT31;52585;47.566;19.056;2022-10-31T04:52:44;15.40;76.01
65824;SHT31;52585;47.566;19.056;2022-10-31T04:55:11;15.39;76.06
65824;SHT31;52585;47.566;19.056;2022-10-31T04:57:41;15.38;76.12
65824;SHT31;52585;47.566;19.056;2022-10-31T05:00:10;15.37;76.14
65824;SHT31;52585;47.566;19.056;2022-10-31T05:02:48;15.37;76.13
65824;SHT31;52585;47.566;19.056;2022-10-31T05:05:20;15.39;76.16
65824;SHT31;52585;47.566;19.056;2022-10-31T05:07:50;15.38;76.12
65824;SHT31;52585;47.566;19.056;2022-10-31T05:10:18;15.38;76.10
65824;SHT31;52585;47.566;19.056;2022-10-31T05:12:52;15.36;76.10
65824;SHT31;52585;47.566;19.056;2022-10-31T05:15:25;15.35;76.11
65824;SHT31;52585;47.566;19.056;2022-10-31T05:17:53;15.34;76.13
65824;SHT31;52585;47.566;19.056;2022-10-31T05:20:20;15.33;76.22
65824;SHT31;52585;47.566;19.056;2022-10-31T05:22:50;15.34;76.23
65824;SHT31;52585;47.566;19.056;2022-10-31T05:25:18;15.34;76.26
65824;SHT31;52585;47.566;19.056;2022-10-31T05:27:46;15.35;76.28
65824;SHT31;52585;47.566;19.056;2022-10-31T05:30:15;15.34;76.26
65824;SHT31;52585;47.566;19.056;2022-10-31T05:32:45;15.34;76.22
65824;SHT31;52585;47.566;19.056;2022-10-31T05:35:15;15.35;76.17
65824;SHT31;52585;47.566;19.056;2022-10-31T05:37:45;15.34;76.21
65824;SHT31;52585;47.566;19.056;2022-10-31T05:40:11;15.34;76.32
65824;SHT31;52585;47.566;19.056;2022-10-31T05:42:39;15.32;76.41
65824;SHT31;52585;47.566;19.056;2022-10-31T05:45:10;15.31;76.41
65824;SHT31;52585;47.566;19.056;2022-10-31T05:47:39;15.31;76.33
65824;SHT31;52585;47.566;19.056;2022-10-31T05:50:05;15.32;76.31
65824;SHT31;52585;47.566;19.056;2022-10-31T05:52:32;15.33;76.34
65824;SHT31;52585;47.566;19.056;2022-10-31T05:54:57;15.34;76.31
65824;SHT31;52585;47.566;19.056;2022-10-31T05:57:23;15.34;76.32
65824;SHT31;52585;47.566;19.056;2022-10-31T05:59:49;15.35;76.31
65824;SHT31;52585;47.566;19.056;2022-10-31T06:02:18;15.35;76.31
65824;SHT31;52585;47.566;19.056;2022-10-31T06:04:44;15.35;76.33
65824;SHT31;52585;47.566;19.056;2022-10-31T06:07:10;15.35;76.30
65824;SHT31;52585;47.566;19.056;2022-10-31T06:09:35;15.34;76.31
65824;SHT31;52585;47.566;19.056;2022-10-31T06:12:01;15.34;76.36
65824;SHT31;52585;47.566;19.056;2022-10-31T06:14:27;15.36;76.43
65824;SHT31;52585;47.566;19.056;2022-10-31T06:16:53;15.35;76.48
65824;SHT31;52585;47.566;19.056;2022-10-31T06:19:20;15.36;76.50
65824;SHT31;52585;47.566;19.056;2022-10-31T06:21:45;15.37;76.52
65824;SHT31;52585;47.566;19.056;2022-10-31T06:24:11;15.37;76.50
65824;SHT31;52585;47.566;19.056;2022-10-31T06:26:36;15.36;76.52
65824;SHT31;52585;47.566;19.056;2022-10-31T06:29:02;15.34;76.50
65824;SHT31;52585;47.566;19.056;2022-10-31T06:31:28;15.33;76.51
65824;SHT31;52585;47.566;19.056;2022-10-31T06:33:53;15.34;76.64
65824;SHT31;52585;47.566;19.056;2022-10-31T06:36:18;15.34;76.67
65824;SHT31;52585;47.566;19.056;2022-10-31T06:38:44;15.35;76.70
65824;SHT31;52585;47.566;19.056;2022-10-31T06:41:09;15.34;76.77
65824;SHT31;52585;47.566;19.056;2022-10-31T06:43:35;15.35;76.79
65824;SHT31;52585;47.566;19.056;2022-10-31T06:46:04;15.37;76.73
65824;SHT31;52585;47.566;19.056;2022-10-31T06:48:30;15.38;76.78
65824;SHT31;52585;47.566;19.056;2022-10-31T06:50:57;15.38;76.70
65824;SHT31;52585;47.566;19.056;2022-10-31T06:53:24;15.38;76.70
65824;SHT31;52585;47.566;19.056;2022-10-31T06:55:56;15.37;76.60
65824;SHT31;52585;47.566;19.056;2022-10-31T06:58:22;15.36;76.62
65824;SHT31;52585;47.566;19.056;2022-10-31T07:00:48;15.34;76.73
65824;SHT31;52585;47.566;19.056;2022-10-31T07:03:14;15.34;76.78
65824;SHT31;52585;47.566;19.056;2022-10-31T07:05:41;15.35;76.80
65824;SHT31;52585;47.566;19.056;2022-10-31T07:08:08;15.36;76.73
65824;SHT31;52585;47.566;19.056;2022-10-31T07:10:37;15.38;76.68
65824;SHT31;52585;47.566;19.056;2022-10-31T07:13:06;15.38;76.71
65824;SHT31;52585;47.566;19.056;2022-10-31T07:15:36;15.40;76.71
65824;SHT31;52585;47.566;19.056;2022-10-31T07:18:04;15.43;76.62
65824;SHT31;52585;47.566;19.056;2022-10-31T07:20:32;15.43;76.52
65824;SHT31;52585;47.566;19.056;2022-10-31T07:22:58;15.42;76.52
65824;SHT31;52585;47.566;19.056;2022-10-31T07:25:25;15.40;76.56
65824;SHT31;52585;47.566;19.056;2022-10-31T07:27:51;15.40;76.63
65824;SHT31;52585;47.566;19.056;2022-10-31T07:30:17;15.40;76.68
65824;SHT31;52585;47.566;19.056;2022-10-31T07:32:44;15.40;76.70
65824;SHT31;52585;47.566;19.056;2022-10-31T07:35:13;15.39;76.67
65824;SHT31;52585;47.566;19.056;2022-10-31T07:37:42;15.38;76.68
65824;SHT31;52585;47.566;19.056;2022-10-31T07:40:08;15.39;76.71
65824;SHT31;52585;47.566;19.056;2022-10-31T07:42:38;15.38;76.65
65824;SHT31;52585;47.566;19.056;2022-10-31T07:45:07;15.37;76.63
65824;SHT31;52585;47.566;19.056;2022-10-31T07:47:42;15.37;76.60
65824;SHT31;52585;47.566;19.056;2022-10-31T07:50:15;15.36;76.57
65824;SHT31;52585;47.566;19.056;2022-10-31T07:52:43;15.34;76.57
65824;SHT31;52585;47.566;19.056;2022-10-31T07:55:10;15.33;76.70
65824;SHT31;52585;47.566;19.056;2022-10-31T07:57:37;15.33;76.71
65824;SHT31;52585;47.566;19.056;2022-10-31T08:00:03;15.33;76.72
65824;SHT31;52585;47.566;19.056;2022-10-31T08:02:31;15.34;76.68
65824;SHT31;52585;47.566;19.056;2022-10-31T08:04:56;15.35;76.67
65824;SHT31;52585;47.566;19.056;2022-10-31T08:07:22;15.37;76.64
65824;SHT31;52585;47.566;19.056;2022-10-31T08:09:47;15.38;76.54
65824;SHT31;52585;47.566;19.056;2022-10-31T08:12:13;15.37;76.51
65824;SHT31;52585;47.566;19.056;2022-10-31T08:14:39;15.37;76.50
65824;SHT31;52585;47.566;19.056;2022-10-31T08:17:04;15.36;76.46
65824;SHT31;52585;47.566;19.056;2022-10-31T08:19:29;15.35;76.47
65824;SHT31;52585;47.566;19.056;2022-10-31T08:21:55;15.35;76.48
65824;SHT31;52585;47.566;19.056;2022-10-31T08:24:21;15.35;76.41
65824;SHT31;52585;47.566;19.056;2022-10-31T08:26:47;15.36;76.47
65824;SHT31;52585;47.566;19.056;2022-10-31T08:29:13;15.37;76.48
65824;SHT31;52585;47.566;19.056;2022-10-31T08:31:39;15.38;76.41
65824;SHT31;52585;47.566;19.056;2022-10-31T08:34:06;15.38;76.34
65824;SHT31;52585;47.566;19.056;2022-10-31T08:36:32;15.38;76.33
65824;SHT31;52585;47.566;19.056;2022-10-31T08:38:58;15.38;76.31
65824;SHT31;52585;47.566;19.056;2022-10-31T08:41:23;15.38;76.34
65824;SHT31;52585;47.566;19.056;2022-10-31T08:43:49;15.35;76.33
65824;SHT31;52585;47.566;19.056;2022-10-31T08:46:14;15.33;76.33
65824;SHT31;52585;47.566;19.056;2022-10-31T08:48:41;15.33;76.41
65824;SHT31;52585;47.566;19.056;2022-10-31T08:51:06;15.35;76.42
65824;SHT31;52585;47.566;19.056;2022-10-31T08:53:32;15.37;76.36
65824;SHT31;52585;47.566;19.056;2022-10-31T08:55:57;15.40;76.32
65824;SHT31;52585;47.566;19.056;2022-10-31T08:58:23;15.41;76.32
65824;SHT31;52585;47.566;19.056;2022-10-31T09:00:51;15.42;76.26
65824;SHT31;52585;47.566;19.056;2022-10-31T09:05:56;15.44;76.20
65824;SHT31;52585;47.566;19.056;2022-10-31T09:08:24;15.45;76.20
65824;SHT31;52585;47.566;19.056;2022-10-31T09:10:51;15.46;76.21
65824;SHT31;52585;47.566;19.056;2022-10-31T09:13:20;15.47;76.22
65824;SHT31;52585;47.566;19.056;2022-10-31T09:15:48;15.48;76.22
65824;SHT31;52585;47.566;19.056;2022-10-31T09:18:16;15.50;76.30
65824;SHT31;52585;47.566;19.056;2022-10-31T09:20:46;15.53;76.33
65824;SHT31;52585;47.566;19.056;2022-10-31T09:25:45;15.56;76.17
65824;SHT31;52585;47.566;19.056;2022-10-31T09:28:13;15.56;76.13
65824;SHT31;52585;47.566;19.056;2022-10-31T09:30:41;15.56;76.04
65824;SHT31;52585;47.566;19.056;2022-10-31T09:33:11;15.57;76.06
65824;SHT31;52585;47.566;19.056;2022-10-31T09:35:38;15.56;76.02
65824;SHT31;52585;47.566;19.056;2022-10-31T09:38:06;15.55;76.08
65824;SHT31;52585;47.566;19.056;2022-10-31T09:45:54;15.59;76.13
65824;SHT31;52585;47.566;19.056;2022-10-31T09:54:16;15.62;76.05
65824;SHT31;52585;47.566;19.056;2022-10-31T09:57:14;15.61;76.05
65824;SHT31;52585;47.566;19.056;2022-10-31T09:59:44;15.60;76.02
65824;SHT31;52585;47.566;19.056;2022-10-31T10:04:40;15.60;76.11
65824;SHT31;52585;47.566;19.056;2022-10-31T10:07:25;15.61;76.14
65824;SHT31;52585;47.566;19.056;2022-10-31T10:13:14;15.64;76.13
65824;SHT31;52585;47.566;19.056;2022-10-31T10:24:12;15.68;76.00
65824;SHT31;52585;47.566;19.056;2022-10-31T10:27:01;15.65;76.00
65824;SHT31;52585;47.566;19.056;2022-10-31T10:29:39;15.65;75.99
65824;SHT31;52585;47.566;19.056;2022-10-31T10:32:25;15.65;76.01
65824;SHT31;52585;47.566;19.056;2022-10-31T10:34:57;15.64;76.11
65824;SHT31;52585;47.566;19.056;2022-10-31T10:37:40;15.65;76.14
65824;SHT31;52585;47.566;19.056;2022-10-31T10:49:31;15.68;76.05
65824;SHT31;52585;47.566;19.056;2022-10-31T10:55:09;15.66;76.03
65824;SHT31;52585;47.566;19.056;2022-10-31T10:58:03;15.66;76.01
65824;SHT31;52585;47.566;19.056;2022-10-31T11:00:43;15.66;75.95
65824;SHT31;52585;47.566;19.056;2022-10-31T11:03:13;15.66;75.92
65824;SHT31;52585;47.566;19.056;2022-10-31T11:11:01;15.69;76.10
65824;SHT31;52585;47.566;19.056;2022-10-31T11:13:50;15.70;76.10
65824;SHT31;52585;47.566;19.056;2022-10-31T11:21:37;15.72;76.13
65824;SHT31;52585;47.566;19.056;2022-10-31T11:24:04;15.70;76.19
65824;SHT31;52585;47.566;19.056;2022-10-31T11:26:42;15.72;76.21
65824;SHT31;52585;47.566;19.056;2022-10-31T11:31:50;15.73;76.22
65824;SHT31;52585;47.566;19.056;2022-10-31T11:34:23;15.74;76.22
65824;SHT31;52585;47.566;19.056;2022-10-31T11:39:55;15.75;76.12
65824;SHT31;52585;47.566;19.056;2022-10-31T11:42:25;15.75;76.08
65824;SHT31;52585;47.566;19.056;2022-10-31T11:44:59;15.75;76.00
65824;SHT31;52585;47.566;19.056;2022-10-31T11:47:40;15.74;76.03
65824;SHT31;52585;47.566;19.056;2022-10-31T11:50:19;15.74;76.04
65824;SHT31;52585;47.566;19.056;2022-10-31T11:52:51;15.74;76.11
65824;SHT31;52585;47.566;19.056;2022-10-31T11:57:56;15.73;76.07
65824;SHT31;52585;47.566;19.056;2022-10-31T12:06:08;15.75;76.08
65824;SHT31;52585;47.566;19.056;2022-10-31T12:09:00;15.76;76.10
65824;SHT31;52585;47.566;19.056;2022-10-31T12:31:29;15.73;75.93
65824;SHT31;52585;47.566;19.056;2022-10-31T12:43:41;15.73;75.91
65824;SHT31;52585;47.566;19.056;2022-10-31T12:49:49;15.73;75.91
65824;SHT31;52585;47.566;19.056;2022-10-31T12:58:24;15.76;75.82
65824;SHT31;52585;47.566;19.056;2022-10-31T13:01:19;15.76;75.77
65824;SHT31;52585;47.566;19.056;2022-10-31T13:04:16;15.77;75.81
65824;SHT31;52585;47.566;19.056;2022-10-31T13:06:49;15.77;75.72
65824;SHT31;52585;47.566;19.056;2022-10-31T13:09:55;15.77;75.72
65824;SHT31;52585;47.566;19.056;2022-10-31T13:12:37;15.77;75.66
65824;SHT31;52585;47.566;19.056;2022-10-31T13:15:05;15.76;75.59
65824;SHT31;52585;47.566;19.056;2022-10-31T13:17:49;15.76;75.56
65824;SHT31;52585;47.566;19.056;2022-10-31T13:20:27;15.76;75.56
65824;SHT31;52585;47.566;19.056;2022-10-31T13:25:52;15.74;75.45
65824;SHT31;52585;47.566;19.056;2022-10-31T13:28:29;15.75;75.49
65824;SHT31;52585;47.566;19.056;2022-10-31T13:31:05;15.75;75.43
65824;SHT31;52585;47.566;19.056;2022-10-31T13:33:33;15.75;75.39
65824;SHT31;52585;47.566;19.056;2022-10-31T13:42:20;15.74;75.50
65824;SHT31;52585;47.566;19.056;2022-10-31T13:45:20;15.74;75.42
65824;SHT31;52585;47.566;19.056;2022-10-31T13:47:59;15.74;75.36
65824;SHT31;52585;47.566;19.056;2022-10-31T13:50:40;15.74;75.34
65824;SHT31;52585;47.566;19.056;2022-10-31T13:53:12;15.74;75.41
65824;SHT31;52585;47.566;19.056;2022-10-31T13:55:49;15.74;75.42
65824;SHT31;52585;47.566;19.056;2022-10-31T13:58:30;15.75;75.42
65824;SHT31;52585;47.566;19.056;2022-10-31T14:00:57;15.73;75.38
65824;SHT31;52585;47.566;19.056;2022-10-31T14:03:30;15.73;75.37
65824;SHT31;52585;47.566;19.056;2022-10-31T14:06:00;15.73;75.39
65824;SHT31;52585;47.566;19.056;2022-10-31T14:08:26;15.72;75.37
65824;SHT31;52585;47.566;19.056;2022-10-31T14:10:55;15.71;75.35
65824;SHT31;52585;47.566;19.056;2022-10-31T14:13:28;15.71;75.33
65824;SHT31;52585;47.566;19.056;2022-10-31T14:16:06;15.70;75.31
65824;SHT31;52585;47.566;19.056;2022-10-31T14:18:50;15.69;75.31
65824;SHT31;52585;47.566;19.056;2022-10-31T14:21:30;15.67;75.25
65824;SHT31;52585;47.566;19.056;2022-10-31T14:24:12;15.65;75.29
65824;SHT31;52585;47.566;19.056;2022-10-31T14:27:32;15.65;75.32
65824;SHT31;52585;47.566;19.056;2022-10-31T14:29:48;15.65;75.32
65824;SHT31;52585;47.566;19.056;2022-10-31T14:32:19;15.65;75.35
65824;SHT31;52585;47.566;19.056;2022-10-31T14:34:52;15.65;75.38
65824;SHT31;52585;47.566;19.056;2022-10-31T14:43:08;15.64;75.31
65824;SHT31;52585;47.566;19.056;2022-10-31T14:51:54;15.63;75.16
65824;SHT31;52585;47.566;19.056;2022-10-31T14:54:39;15.62;75.17
65824;SHT31;52585;47.566;19.056;2022-10-31T14:57:17;15.60;75.12
65824;SHT31;52585;47.566;19.056;2022-10-31T14:59:53;15.60;75.09
65824;SHT31;52585;47.566;19.056;2022-10-31T15:04:59;15.60;75.05
65824;SHT31;52585;47.566;19.056;2022-10-31T15:07:27;15.59;75.09
65824;SHT31;52585;47.566;19.056;2022-10-31T15:10:00;15.60;75.09
65824;SHT31;52585;47.566;19.056;2022-10-31T15:12:28;15.59;75.09
65824;SHT31;52585;47.566;19.056;2022-10-31T15:15:12;15.57;75.13
65824;SHT31;52585;47.566;19.056;2022-10-31T15:17:43;15.57;75.13
65824;SHT31;52585;47.566;19.056;2022-10-31T15:20:17;15.56;75.16
65824;SHT31;52585;47.566;19.056;2022-10-31T15:22:48;15.57;75.21
65824;SHT31;52585;47.566;19.056;2022-10-31T15:25:16;15.56;75.20
65824;SHT31;52585;47.566;19.056;2022-10-31T15:27:51;15.57;75.16
65824;SHT31;52585;47.566;19.056;2022-10-31T15:30:28;15.57;75.20
65824;SHT31;52585;47.566;19.056;2022-10-31T15:32:54;15.58;75.15
65824;SHT31;52585;47.566;19.056;2022-10-31T15:35:24;15.57;75.19
65824;SHT31;52585;47.566;19.056;2022-10-31T15:37:52;15.56;75.18
65824;SHT31;52585;47.566;19.056;2022-10-31T15:40:19;15.56;75.21
65824;SHT31;52585;47.566;19.056;2022-10-31T15:42:59;15.55;75.31
65824;SHT31;52585;47.566;19.056;2022-10-31T15:45:29;15.56;75.28
65824;SHT31;52585;47.566;19.056;2022-10-31T15:50:45;15.54;75.28
65824;SHT31;52585;47.566;19.056;2022-10-31T15:53:18;15.55;75.25
65824;SHT31;52585;47.566;19.056;2022-10-31T15:55:51;15.55;75.24
65824;SHT31;52585;47.566;19.056;2022-10-31T15:58:25;15.56;75.22
65824;SHT31;52585;47.566;19.056;2022-10-31T16:00:57;15.55;75.22
65824;SHT31;52585;47.566;19.056;2022-10-31T16:03:30;15.55;75.20
65824;SHT31;52585;47.566;19.056;2022-10-31T16:06:02;15.54;75.12
65824;SHT31;52585;47.566;19.056;2022-10-31T16:13:40;15.54;75.22
65824;SHT31;52585;47.566;19.056;2022-10-31T16:16:17;15.51;75.19
65824;SHT31;52585;47.566;19.056;2022-10-31T16:18:45;15.51;75.16
65824;SHT31;52585;47.566;19.056;2022-10-31T16:21:12;15.52;75.14
65824;SHT31;52585;47.566;19.056;2022-10-31T16:23:39;15.53;75.13
65824;SHT31;52585;47.566;19.056;2022-10-31T16:26:14;15.52;75.11
65824;SHT31;52585;47.566;19.056;2022-10-31T16:28:54;15.49;75.10
65824;SHT31;52585;47.566;19.056;2022-10-31T16:31:30;15.49;75.11
65824;SHT31;52585;47.566;19.056;2022-10-31T16:34:13;15.48;75.11
65824;SHT31;52585;47.566;19.056;2022-10-31T16:36:45;15.48;75.09
65824;SHT31;52585;47.566;19.056;2022-10-31T16:39:11;15.48;75.07
65824;SHT31;52585;47.566;19.056;2022-10-31T16:41:39;15.47;75.06
65824;SHT31;52585;47.566;19.056;2022-10-31T16:49:41;15.47;74.93
65824;SHT31;52585;47.566;19.056;2022-10-31T16:52:08;15.47;74.92
65824;SHT31;52585;47.566;19.056;2022-10-31T16:54:34;15.46;74.93
65824;SHT31;52585;47.566;19.056;2022-10-31T16:57:00;15.45;74.94
65824;SHT31;52585;47.566;19.056;2022-10-31T16:59:28;15.44;75.00
65824;SHT31;52585;47.566;19.056;2022-10-31T17:01:58;15.43;75.01
65824;SHT31;52585;47.566;19.056;2022-10-31T17:04:25;15.44;75.09
65824;SHT31;52585;47.566;19.056;2022-10-31T17:06:51;15.44;75.13
65824;SHT31;52585;47.566;19.056;2022-10-31T17:09:16;15.43;75.12
65824;SHT31;52585;47.566;19.056;2022-10-31T17:11:44;15.44;75.12
65824;SHT31;52585;47.566;19.056;2022-10-31T17:14:14;15.43;75.11
65824;SHT31;52585;47.566;19.056;2022-10-31T17:16:40;15.43;75.14
65824;SHT31;52585;47.566;19.056;2022-10-31T17:19:07;15.41;75.17
65824;SHT31;52585;47.566;19.056;2022-10-31T17:21:36;15.40;75.25
65824;SHT31;52585;47.566;19.056;2022-10-31T17:24:02;15.40;75.30
65824;SHT31;52585;47.566;19.056;2022-10-31T17:26:28;15.38;75.33
65824;SHT31;52585;47.566;19.056;2022-10-31T17:28:54;15.38;75.35
65824;SHT31;52585;47.566;19.056;2022-10-31T17:33:54;15.39;75.40
65824;SHT31;52585;47.566;19.056;2022-10-31T17:36:21;15.38;75.38
65824;SHT31;52585;47.566;19.056;2022-10-31T17:38:47;15.36;75.39
65824;SHT31;52585;47.566;19.056;2022-10-31T17:41:13;15.36;75.40
65824;SHT31;52585;47.566;19.056;2022-10-31T17:43:38;15.36;75.37
65824;SHT31;52585;47.566;19.056;2022-10-31T17:46:04;15.33;75.41
65824;SHT31;52585;47.566;19.056;2022-10-31T17:48:32;15.33;75.47
65824;SHT31;52585;47.566;19.056;2022-10-31T17:51:02;15.32;75.50
65824;SHT31;52585;47.566;19.056;2022-10-31T17:53:30;15.33;75.52
65824;SHT31;52585;47.566;19.056;2022-10-31T17:56:01;15.32;75.53
65824;SHT31;52585;47.566;19.056;2022-10-31T17:58:31;15.30;75.52
65824;SHT31;52585;47.566;19.056;2022-10-31T18:01:00;15.30;75.47
65824;SHT31;52585;47.566;19.056;2022-10-31T18:03:36;15.30;75.47
65824;SHT31;52585;47.566;19.056;2022-10-31T18:06:02;15.31;75.52
65824;SHT31;52585;47.566;19.056;2022-10-31T18:08:30;15.31;75.53
65824;SHT31;52585;47.566;19.056;2022-10-31T18:10:59;15.31;75.50
65824;SHT31;52585;47.566;19.056;2022-10-31T18:13:42;15.29;75.54
65824;SHT31;52585;47.566;19.056;2022-10-31T18:16:15;15.28;75.58
65824;SHT31;52585;47.566;19.056;2022-10-31T18:18:43;15.27;75.67
65824;SHT31;52585;47.566;19.056;2022-10-31T18:21:08;15.27;75.78
65824;SHT31;52585;47.566;19.056;2022-10-31T18:23:34;15.27;75.86
65824;SHT31;52585;47.566;19.056;2022-10-31T18:26:00;15.28;75.89
65824;SHT31;52585;47.566;19.056;2022-10-31T18:28:25;15.29;75.94
65824;SHT31;52585;47.566;19.056;2022-10-31T18:30:51;15.28;75.96
65824;SHT31;52585;47.566;19.056;2022-10-31T18:33:16;15.28;75.91
65824;SHT31;52585;47.566;19.056;2022-10-31T18:35:42;15.28;75.89
65824;SHT31;52585;47.566;19.056;2022-10-31T18:38:07;15.28;75.90
65824;SHT31;52585;47.566;19.056;2022-10-31T18:40:33;15.27;75.89
65824;SHT31;52585;47.566;19.056;2022-10-31T18:43:00;15.26;75.86
65824;SHT31;52585;47.566;19.056;2022-10-31T18:45:27;15.25;75.90